Erexim, Brazil
Current Conditions -  °F | °C
As of 6:00 PM on Friday 19 Dec 2014 (Local Time) from SBCH Reporting Station
Few Clouds Few Clouds  
Wind Chill: 88°   Ceiling: Unl
Heat Index: 93°   Visibility: 6mi
Dew Point: 70°   Wind: 7mph
Humidity: 55%   Direction: 270°W
Pressure: 29.74"   Gusts: NA
Location:  27.63°S, 52.26°W
Report Text: SBCH 192000Z 27006KT 9999 FEW040 31/21 Q1007
Loading
Personal Weather Stations






























Interactive Weather Map New forecast layout! Learn more

10-Day Weather Forecast

Advertisements
Track Severe Weather on mobile